EDXW

Westerland Sylt Airport

Westerland, Germany
METAR EDXW 201220Z 19011KT 5000 SHRA SCT007TCU BKN036 03/02 Q1000
Observed Flight Rules
Jan-20 @ 12:20 UTC (40 minutes ago) Marginal Visual Flight Rules
Wind Visibility Clouds Conditions
190° at 11 knots 5,005 meters
  • Scattered at 700' AGL
  • Broken at 3,600' AGL
  • Rain
Temperatures Readings
Current 3°C / 37°F
Dewpoint 2°C / 36°F
Humidity 93%
Altimeter 29.53" Hg
Pressure 1000 hPa
Elevation 20
METAR EDXW 201220Z 19011KT 5000 SHRA SCT007TCU BKN036 03/02 Q1000
Observed Flight Rules
Jan-20 @ 12:20 UTC
(40 minutes ago)
MVFR
Wind Visibility
190° at 11 knots 5,005 meters
Clouds
  • Scattered at 700' AGL
  • Broken at 3,600' AGL
Conditions
  • Rain
Temperature Dewpoint
3°C / 37°F 2°C / 36°F
Humidity Altimeter Pressure
93% 29.53" Hg 1000 hPa